Time;durP1;ratioP1;P1;durP2;ratioP2;P2;SDS_P1;SDS_P2;PMS_P1;PMS_P2;Temp;Humidity;BMP_temperature;BMP_pressure;BME280_temperature;BME280_humidity;BME280_pressure;Samples;Min_cycle;Max_cycle;Signal;HPM_P1;HPM_P2
2023/02/13 00:01:09;;;;;;;60.67;25.92;;;;;;;-1.08;73.81;95606.53;5102830;28;20027;-80
2023/02/13 00:03:35;;;;;;;55.17;25.55;;;;;;;-1.08;73.40;95603.06;5106868;28;20012;-79
2023/02/13 00:06:00;;;;;;;63.47;26.73;;;;;;;-1.17;73.23;95607.69;5105560;28;20024;-80
2023/02/13 00:08:25;;;;;;;56.70;25.70;;;;;;;-1.14;72.60;95606.47;5106597;28;20020;-79
2023/02/13 00:10:51;;;;;;;54.83;24.02;;;;;;;-1.12;72.44;95607.91;5106637;28;20024;-80
2023/02/13 00:13:16;;;;;;;55.80;24.13;;;;;;;-1.10;72.23;95608.53;5106627;28;20040;-79
2023/02/13 00:15:42;;;;;;;49.83;22.83;;;;;;;-1.09;72.31;95614.56;5106580;28;20031;-79
2023/02/13 00:18:07;;;;;;;60.85;24.15;;;;;;;-1.11;73.32;95606.91;5106353;28;20027;-81
2023/02/13 00:20:33;;;;;;;60.63;25.52;;;;;;;-1.12;73.55;95599.25;5105886;28;20035;-81
2023/02/13 00:22:58;;;;;;;62.42;24.70;;;;;;;-1.13;73.60;95614.13;5106281;28;20012;-81
2023/02/13 00:25:24;;;;;;;64.85;26.17;;;;;;;-1.14;73.80;95614.34;5106614;28;20024;-80
2023/02/13 00:27:52;;;;;;;50.90;22.90;;;;;;;-1.15;73.74;95613.53;5105049;28;20020;-80
2023/02/13 00:30:19;;;;;;;49.75;23.17;;;;;;;-1.16;73.03;95606.69;5106091;28;20091;-80
2023/02/13 00:32:44;;;;;;;51.47;22.92;;;;;;;-1.19;72.89;95614.94;5106162;28;20065;-80
2023/02/13 00:35:10;;;;;;;51.38;23.30;;;;;;;-1.20;72.95;95623.78;5106073;28;20051;-80
2023/02/13 00:37:35;;;;;;;51.80;23.17;;;;;;;-1.14;72.45;95622.19;5106127;28;20019;-81
2023/02/13 00:40:01;;;;;;;56.33;24.80;;;;;;;-1.12;72.29;95621.00;5106103;28;20318;-81
2023/02/13 00:42:26;;;;;;;58.70;24.10;;;;;;;-1.10;72.32;95616.38;5106068;28;20031;-81
2023/02/13 00:44:53;;;;;;;50.78;24.20;;;;;;;-1.08;72.34;95609.13;5105967;28;20020;-81
2023/02/13 00:47:18;;;;;;;51.03;23.05;;;;;;;-1.03;72.06;95613.78;5105910;28;20042;-81
2023/02/13 00:49:44;;;;;;;50.85;23.17;;;;;;;-1.03;72.19;95629.47;5106024;28;20040;-81
2023/02/13 00:52:09;;;;;;;61.35;25.83;;;;;;;-1.08;72.26;95624.00;5105842;28;20078;-82
2023/02/13 00:54:35;;;;;;;64.93;25.83;;;;;;;-1.12;72.86;95621.00;5105823;28;20386;-81
2023/02/13 00:57:01;;;;;;;56.13;23.63;;;;;;;-1.12;72.54;95626.25;5105781;28;20218;-80
2023/02/13 00:59:26;;;;;;;49.63;22.80;;;;;;;-1.15;72.38;95631.84;5104538;28;20059;-80
2023/02/13 01:01:51;;;;;;;56.08;23.95;;;;;;;-1.12;72.60;95628.03;5105638;28;20031;-80
2023/02/13 01:04:17;;;;;;;53.83;23.80;;;;;;;-1.14;72.96;95630.88;5104432;28;20024;-80
2023/02/13 01:06:43;;;;;;;52.17;23.05;;;;;;;-1.18;72.80;95629.63;5105933;28;20065;-81
2023/02/13 01:09:08;;;;;;;57.95;24.20;;;;;;;-1.21;73.30;95624.78;5104429;28;20016;-81
2023/02/13 01:11:34;;;;;;;55.75;24.73;;;;;;;-1.22;73.36;95636.28;5105506;28;20214;-81
2023/02/13 01:13:59;;;;;;;56.15;24.02;;;;;;;-1.23;73.07;95638.06;5104075;28;20129;-81
2023/02/13 01:16:25;;;;;;;45.88;21.33;;;;;;;-1.21;71.92;95624.78;5105319;28;20306;-81
2023/02/13 01:18:51;;;;;;;52.42;23.92;;;;;;;-1.26;72.51;95629.81;5105363;28;20322;-83
2023/02/13 01:21:20;;;;;;;49.33;20.88;;;;;;;-1.30;73.00;95628.59;5105442;28;20027;-83
2023/02/13 01:23:46;;;;;;;49.65;22.02;;;;;;;-1.32;73.29;95627.94;5105444;28;20042;-81
2023/02/13 01:26:21;;;;;;;53.67;22.15;;;;;;;-1.30;73.06;95632.00;5105412;28;20023;-82
2023/02/13 01:28:46;;;;;;;49.78;22.95;;;;;;;-1.35;73.53;95634.38;5105031;28;20035;-80
2023/02/13 01:31:12;;;;;;;52.38;22.95;;;;;;;-1.36;73.74;95631.94;5104037;28;20024;-81
2023/02/13 01:33:37;;;;;;;59.92;24.20;;;;;;;-1.43;74.61;95624.09;5104904;28;20345;-81
2023/02/13 01:36:11;;;;;;;51.28;23.85;;;;;;;-1.51;75.36;95632.09;5104993;28;20370;-81
2023/02/13 01:38:36;;;;;;;58.63;22.98;;;;;;;-1.57;75.75;95638.09;5104871;28;20054;-81
2023/02/13 01:41:02;;;;;;;61.42;25.92;;;;;;;-1.63;76.46;95642.28;5104832;28;20218;-80
2023/02/13 01:43:55;;;;;;;71.55;25.45;;;;;;;-1.66;76.81;95637.47;5104846;28;20095;-81
2023/02/13 01:46:42;;;;;;;63.97;24.65;;;;;;;-1.74;77.30;95643.63;5104667;28;20234;-80
2023/02/13 01:49:24;;;;;;;58.67;26.35;;;;;;;-1.74;77.98;95648.06;5104759;28;20023;-80
2023/02/13 01:51:54;;;;;;;80.90;27.92;;;;;;;-1.72;77.90;95646.06;5103492;28;20028;-82
2023/02/13 01:54:29;;;;;;;65.00;26.00;;;;;;;-1.73;78.44;95645.28;5103276;28;20217;-80
2023/02/13 01:57:00;;;;;;;58.97;24.25;;;;;;;-1.75;78.46;95654.28;5104685;28;20031;-81
2023/02/13 01:59:32;;;;;;;73.00;28.55;;;;;;;-1.75;78.70;95643.81;5104455;28;20315;-82
2023/02/13 02:02:00;;;;;;;62.28;26.90;;;;;;;-1.72;78.53;95652.09;5104654;28;20028;-82
2023/02/13 02:04:32;;;;;;;64.60;27.85;;;;;;;-1.70;79.00;95655.31;5103291;28;20027;-81
2023/02/13 02:07:02;;;;;;;69.75;28.20;;;;;;;-1.67;78.88;95648.91;5104520;28;20237;-81
2023/02/13 02:09:31;;;;;;;71.35;26.63;;;;;;;-1.63;78.71;95647.50;5104344;28;20015;-82
2023/02/13 02:12:09;;;;;;;68.45;25.58;;;;;;;-1.65;79.08;95646.91;5104267;28;20016;-82
2023/02/13 02:14:34;;;;;;;74.43;28.60;;;;;;;-1.63;79.63;95645.72;5104272;28;20032;-82
2023/02/13 02:17:00;;;;;;;72.40;28.73;;;;;;;-1.66;79.67;95643.50;5104320;28;20028;-82
2023/02/13 02:19:42;;;;;;;76.95;30.42;;;;;;;-1.60;79.94;95641.13;5104148;28;20023;-82
2023/02/13 02:22:41;;;;;;;68.72;29.17;;;;;;;-1.62;80.42;95641.31;5102962;28;20031;-82
2023/02/13 02:25:16;;;;;;;71.70;29.50;;;;;;;-1.62;80.81;95642.09;5103579;28;20269;-81
2023/02/13 02:28:00;;;;;;;66.03;28.30;;;;;;;-1.57;80.89;95646.75;5104257;28;20130;-81
2023/02/13 02:30:43;;;;;;;78.45;30.25;;;;;;;-1.54;80.96;95653.41;5104023;28;20028;-81
2023/02/13 02:33:26;;;;;;;64.32;29.45;;;;;;;-1.53;81.08;95634.91;5103632;28;20107;-81
2023/02/13 02:36:23;;;;;;;72.60;31.35;;;;;;;-1.50;81.01;95639.75;5104000;28;20027;-81
2023/02/13 02:39:30;;;;;;;80.43;31.42;;;;;;;-1.48;81.41;95639.56;5103701;28;20039;-83
2023/02/13 02:42:01;;;;;;;81.07;31.67;;;;;;;-1.43;81.13;95643.19;5081005;28;20265;-82
2023/02/13 02:44:44;;;;;;;79.40;32.45;;;;;;;-1.37;81.17;95646.03;5103450;28;20019;-82
2023/02/13 02:50:39;;;;;;;81.47;31.45;;;;;;;-1.29;80.90;95664.19;5103680;28;20034;-82
2023/02/13 02:53:07;;;;;;;74.45;31.27;;;;;;;-1.32;80.63;95661.94;5103479;28;20099;-82
2023/02/13 02:55:47;;;;;;;78.60;29.27;;;;;;;-1.36;80.87;95671.19;5103405;28;20020;-82
2023/02/13 03:06:50;;;;;;;73.03;31.33;;;;;;;-1.32;81.03;95669.81;5103274;28;20062;-81
2023/02/13 03:15:05;;;;;;;65.20;26.42;;;;;;;-1.28;79.79;95669.25;5103414;28;20213;-82
2023/02/13 03:23:41;;;;;;;62.72;27.13;;;;;;;-1.22;79.00;95665.06;5048374;28;20320;-82
2023/02/13 03:26:21;;;;;;;57.80;26.35;;;;;;;-1.30;79.06;95665.22;5103263;28;20069;-81
2023/02/13 03:32:11;;;;;;;63.25;27.83;;;;;;;-1.30;79.28;95671.25;5103141;28;20087;-82
2023/02/13 03:37:54;;;;;;;65.90;27.10;;;;;;;-1.30;79.40;95671.25;5105368;28;20031;-80
2023/02/13 03:40:33;;;;;;;63.22;27.60;;;;;;;-1.33;79.67;95676.06;5107196;28;20103;-80
2023/02/13 03:43:09;;;;;;;76.18;30.30;;;;;;;-1.34;79.96;95680.47;5106056;28;20016;-80
2023/02/13 03:45:52;;;;;;;65.45;26.73;;;;;;;-1.33;80.04;95676.06;5106978;28;20259;-80
2023/02/13 03:51:13;;;;;;;66.85;26.98;;;;;;;-1.20;79.52;95665.66;5106784;28;20159;-80
2023/02/13 03:53:41;;;;;;;68.57;29.83;;;;;;;-1.14;78.84;95664.06;5107060;28;20035;-80
2023/02/13 04:01:45;;;;;;;73.30;28.48;;;;;;;-1.07;78.80;95662.28;5106745;28;20077;-80
2023/02/13 04:04:23;;;;;;;70.70;29.63;;;;;;;-1.11;78.96;95659.25;5106863;28;20297;-80
2023/02/13 04:07:28;;;;;;;67.32;29.00;;;;;;;-1.09;78.65;95659.84;5106590;28;20040;-81
2023/02/13 04:09:55;;;;;;;67.05;27.33;;;;;;;-1.08;78.56;95666.72;5106631;28;20039;-80
2023/02/13 04:12:37;;;;;;;62.95;28.42;;;;;;;-1.06;78.45;95662.09;5105302;28;20035;-80
2023/02/13 04:15:47;;;;;;;73.13;29.13;;;;;;;-1.07;78.22;95675.38;5106476;28;20026;-80
2023/02/13 04:18:26;;;;;;;64.22;27.23;;;;;;;-0.99;78.18;95666.53;5074000;28;20036;-80
2023/02/13 04:20:51;;;;;;;73.63;27.35;;;;;;;-0.98;77.83;95676.00;5106553;28;20253;-80
2023/02/13 04:23:18;;;;;;;68.82;27.50;;;;;;;-0.96;77.14;95674.00;5106363;28;20020;-81
2023/02/13 04:25:47;;;;;;;74.10;29.13;;;;;;;-0.96;76.45;95677.41;5106340;28;20203;-81
2023/02/13 04:28:13;;;;;;;60.05;26.45;;;;;;;-0.99;76.56;95677.81;5105347;28;20218;-81
2023/02/13 04:30:38;;;;;;;65.22;27.17;;;;;;;-1.10;76.52;95671.34;5106420;28;20091;-81
2023/02/13 04:33:04;;;;;;;63.17;25.25;;;;;;;-1.16;77.02;95677.34;5105989;28;20020;-81
2023/02/13 04:35:29;;;;;;;61.72;26.17;;;;;;;-1.29;77.39;95672.03;5106187;28;20016;-81
2023/02/13 04:37:55;;;;;;;67.30;26.35;;;;;;;-1.35;77.59;95675.44;5106188;28;20016;-81
2023/02/13 04:40:20;;;;;;;57.40;25.95;;;;;;;-1.45;77.70;95673.16;5105909;28;20016;-80
2023/02/13 04:42:47;;;;;;;67.75;26.92;;;;;;;-1.57;78.11;95669.47;5106260;28;20012;-80
2023/02/13 04:45:13;;;;;;;61.45;24.65;;;;;;;-1.56;78.61;95671.91;5106139;28;20020;-79
2023/02/13 04:47:39;;;;;;;56.53;24.10;;;;;;;-1.64;78.64;95669.44;5105507;28;20103;-79
2023/02/13 04:50:04;;;;;;;66.07;25.52;;;;;;;-1.71;79.82;95663.34;5105940;28;20091;-79
2023/02/13 04:52:30;;;;;;;63.42;26.40;;;;;;;-1.73;79.68;95666.19;5105856;28;20027;-79
2023/02/13 04:54:55;;;;;;;61.67;25.45;;;;;;;-1.71;79.61;95674.66;5105687;28;20016;-79
2023/02/13 04:57:21;;;;;;;60.08;25.88;;;;;;;-1.67;79.76;95675.03;5105845;28;20091;-79
2023/02/13 04:59:46;;;;;;;63.10;28.00;;;;;;;-1.64;79.84;95683.31;5105796;28;20023;-79
2023/02/13 05:02:11;;;;;;;68.55;27.95;;;;;;;-1.64;80.00;95674.69;5105832;28;20099;-79
2023/02/13 05:04:37;;;;;;;68.70;28.00;;;;;;;-1.53;79.80;95689.81;5105529;28;20012;-81
2023/02/13 05:07:02;;;;;;;64.15;27.23;;;;;;;-1.51;79.85;95695.66;5105473;28;20297;-81
2023/02/13 05:09:28;;;;;;;70.03;28.27;;;;;;;-1.47;79.97;95693.47;5104391;28;20191;-81
2023/02/13 05:11:53;;;;;;;65.25;27.58;;;;;;;-1.44;79.69;95691.28;5104042;28;20211;-81
2023/02/13 05:14:19;;;;;;;60.63;25.83;;;;;;;-1.37;79.22;95700.97;5104895;28;20016;-81
2023/02/13 05:16:48;;;;;;;62.22;24.85;;;;;;;-1.38;78.81;95694.94;5105459;28;20333;-81
2023/02/13 05:19:14;;;;;;;63.28;27.02;;;;;;;-1.35;79.03;95693.75;5105413;28;20095;-81
2023/02/13 05:24:24;;;;;;;66.38;26.58;;;;;;;-1.29;79.03;95696.38;5105270;28;20047;-81
2023/02/13 05:26:49;;;;;;;68.22;28.20;;;;;;;-1.26;78.85;95692.59;5105277;28;20020;-79
2023/02/13 05:29:18;;;;;;;61.50;27.35;;;;;;;-1.17;78.90;95701.88;5105039;28;20222;-80
2023/02/13 05:31:48;;;;;;;61.67;27.92;;;;;;;-1.13;78.14;95700.50;5105084;28;20310;-80
2023/02/13 05:34:13;;;;;;;65.47;27.92;;;;;;;-1.10;78.18;95699.28;5104829;28;20024;-80
2023/02/13 05:36:39;;;;;;;59.38;26.40;;;;;;;-1.06;77.88;95706.59;5104801;28;20016;-80
2023/02/13 05:39:04;;;;;;;64.32;27.50;;;;;;;-1.01;77.73;95709.41;5104793;28;20012;-80
2023/02/13 05:41:30;;;;;;;54.92;25.20;;;;;;;-0.98;77.11;95705.59;5104799;28;20095;-81
2023/02/13 05:43:55;;;;;;;56.28;24.02;;;;;;;-0.99;76.89;95704.00;5104637;28;20091;-80
2023/02/13 05:46:21;;;;;;;64.30;26.77;;;;;;;-0.98;76.84;95699.56;5104361;28;20044;-79
2023/02/13 05:48:46;;;;;;;60.35;26.92;;;;;;;-0.97;76.91;95709.03;5103376;28;20020;-79
2023/02/13 05:51:12;;;;;;;56.90;24.33;;;;;;;-0.91;76.89;95711.66;5104680;28;20016;-79
2023/02/13 05:53:37;;;;;;;74.53;27.80;;;;;;;-0.83;76.86;95705.47;5103437;28;20020;-81
2023/02/13 05:56:05;;;;;;;69.00;27.42;;;;;;;-0.86;76.76;95711.06;5104433;28;20016;-81
2023/02/13 05:58:31;;;;;;;63.25;27.17;;;;;;;-0.89;77.27;95714.09;5104443;28;20024;-80
2023/02/13 06:00:57;;;;;;;62.78;24.98;;;;;;;-0.84;76.99;95730.00;5103393;28;20194;-81
2023/02/13 06:03:24;;;;;;;59.80;27.33;;;;;;;-0.86;77.20;95729.41;5104444;28;20020;-82
2023/02/13 06:05:50;;;;;;;70.53;28.52;;;;;;;-0.83;77.29;95731.66;5104347;28;20051;-81
2023/02/13 06:08:18;;;;;;;70.07;29.48;;;;;;;-0.79;77.22;95721.56;5104321;28;20046;-82
2023/02/13 06:10:43;;;;;;;68.15;28.65;;;;;;;-0.78;77.35;95731.06;5104529;28;20065;-81
2023/02/13 06:13:09;;;;;;;65.10;27.63;;;;;;;-0.81;77.25;95727.03;5104102;28;20031;-80
2023/02/13 06:15:34;;;;;;;59.22;26.60;;;;;;;-0.81;77.21;95737.50;5102934;28;20081;-80
2023/02/13 06:18:00;;;;;;;68.85;28.67;;;;;;;-0.76;77.10;95731.66;5102990;28;20231;-81
2023/02/13 06:20:25;;;;;;;67.68;28.88;;;;;;;-0.73;76.57;95728.63;5104073;28;20310;-81
2023/02/13 06:22:51;;;;;;;61.88;26.45;;;;;;;-0.68;76.42;95727.06;5104154;28;20042;-82
2023/02/13 06:25:17;;;;;;;59.92;25.27;;;;;;;-0.65;76.21;95729.28;5103778;28;20020;-81
2023/02/13 06:27:42;;;;;;;66.13;28.15;;;;;;;-0.61;76.23;95738.38;5103971;28;20027;-81
2023/02/13 06:30:09;;;;;;;64.95;29.08;;;;;;;-0.56;75.87;95739.59;5103794;28;20020;-81
2023/02/13 06:32:34;;;;;;;62.33;26.77;;;;;;;-0.58;75.86;95741.59;5103614;28;20146;-80
2023/02/13 06:34:59;;;;;;;61.65;25.70;;;;;;;-0.55;75.82;95746.44;5103665;28;20032;-81
2023/02/13 06:37:25;;;;;;;65.97;26.70;;;;;;;-0.58;76.12;95739.78;5102639;28;20060;-81
2023/02/13 06:39:50;;;;;;;71.95;30.35;;;;;;;-0.59;76.14;95739.97;5103750;28;20026;-81
2023/02/13 06:42:17;;;;;;;76.18;28.02;;;;;;;-0.61;76.50;95738.38;5103661;28;20031;-83
2023/02/13 06:44:42;;;;;;;62.53;26.30;;;;;;;-0.62;76.40;95741.19;5103631;28;20020;-81
2023/02/13 06:47:08;;;;;;;66.10;25.33;;;;;;;-0.71;76.08;95748.41;5103375;28;20250;-81
2023/02/13 06:49:33;;;;;;;64.05;28.77;;;;;;;-0.61;76.14;95740.19;5103357;28;20046;-82
2023/02/13 06:51:59;;;;;;;78.82;31.80;;;;;;;-0.53;76.60;95740.00;5103470;28;20035;-81
2023/02/13 06:54:24;;;;;;;65.88;28.63;;;;;;;-0.48;75.79;95750.69;5103262;28;20222;-82
2023/02/13 06:56:50;;;;;;;73.18;30.48;;;;;;;-0.39;75.75;95755.75;5103433;28;20024;-82
2023/02/13 06:59:15;;;;;;;67.18;29.88;;;;;;;-0.35;74.81;95742.03;5103510;28;20219;-81
2023/02/13 07:01:41;;;;;;;71.30;29.70;;;;;;;-0.39;74.79;95748.69;5102194;28;20157;-82
2023/02/13 07:04:06;;;;;;;61.38;25.25;;;;;;;-0.42;75.05;95747.28;5103178;28;20257;-82
2023/02/13 07:06:32;;;;;;;63.10;27.65;;;;;;;-0.41;75.00;95735.81;5103112;28;20028;-82
2023/02/13 07:08:57;;;;;;;67.65;26.45;;;;;;;-0.46;75.01;95740.03;5102318;28;20028;-83
2023/02/13 07:11:24;;;;;;;62.60;27.95;;;;;;;-0.39;74.74;95737.41;5101274;28;20024;-82
2023/02/13 07:13:49;;;;;;;62.70;27.10;;;;;;;-0.45;75.02;95734.59;5101046;28;20016;-82
2023/02/13 07:16:15;;;;;;;64.38;25.92;;;;;;;-0.43;74.84;95742.22;5100223;28;20102;-82
2023/02/13 07:18:40;;;;;;;60.40;27.08;;;;;;;-0.45;74.98;95741.63;5101403;28;20024;-81
2023/02/13 07:21:07;;;;;;;62.60;27.52;;;;;;;-0.38;74.74;95739.84;5101790;28;20055;-80
2023/02/13 07:23:32;;;;;;;65.72;27.42;;;;;;;-0.28;74.96;95747.31;5101505;28;20206;-81
2023/02/13 07:25:59;;;;;;;65.65;29.23;;;;;;;-0.23;74.35;95745.69;5102747;28;20035;-80
2023/02/13 07:28:24;;;;;;;65.10;26.50;;;;;;;-0.16;74.06;95753.59;5102830;28;20435;-80
2023/02/13 07:30:50;;;;;;;61.67;26.95;;;;;;;-0.16;73.46;95764.09;5103074;28;20032;-80
2023/02/13 07:33:15;;;;;;;63.85;27.48;;;;;;;-0.24;73.78;95749.34;5102916;28;20270;-80
2023/02/13 07:35:48;;;;;;;64.95;27.65;;;;;;;-0.23;73.45;95745.69;5102946;28;20206;-80
2023/02/13 07:38:14;;;;;;;64.60;27.92;;;;;;;-0.19;73.67;95755.81;5102865;28;20099;-80
2023/02/13 07:40:40;;;;;;;68.05;29.42;;;;;;;-0.13;73.38;95755.81;5102947;28;20016;-80
2023/02/13 07:43:05;;;;;;;61.72;27.50;;;;;;;-0.12;73.01;95751.34;5102911;28;20310;-82
2023/02/13 07:45:31;;;;;;;65.93;28.92;;;;;;;-0.11;73.41;95759.03;5102406;28;20019;-83
2023/02/13 07:47:57;;;;;;;71.80;29.85;;;;;;;-0.09;73.39;95757.03;5102770;28;20020;-82
2023/02/13 07:50:23;;;;;;;67.90;28.70;;;;;;;-0.10;73.51;95754.59;5102911;28;20024;-82
2023/02/13 07:52:55;;;;;;;64.93;27.77;;;;;;;-0.07;73.12;95755.00;5102833;28;20199;-82
2023/02/13 07:55:21;;;;;;;66.82;28.17;;;;;;;0.02;72.90;95753.03;5102724;28;20042;-82
2023/02/13 07:57:47;;;;;;;66.28;28.23;;;;;;;0.03;72.48;95754.63;5102569;28;20043;-81
2023/02/13 08:00:14;;;;;;;69.00;31.13;;;;;;;0.08;72.85;95746.97;5102726;28;20036;-82
2023/02/13 08:02:39;;;;;;;65.13;28.23;;;;;;;0.15;72.45;95746.97;5102769;28;20314;-78
2023/02/13 08:05:05;;;;;;;62.13;27.58;;;;;;;0.19;71.94;95759.47;5102716;28;20031;-81
2023/02/13 08:07:31;;;;;;;62.70;27.17;;;;;;;0.18;71.29;95750.00;5102104;28;20020;-81
2023/02/13 08:12:41;;;;;;;60.72;26.98;;;;;;;0.16;71.46;95744.16;5102509;28;20093;-82
2023/02/13 08:15:10;;;;;;;56.22;28.65;;;;;;;0.18;72.24;95757.88;5102752;28;20234;-82
2023/02/13 08:17:35;;;;;;;71.60;29.27;;;;;;;0.27;71.67;95749.81;5102460;28;20024;-82
2023/02/13 08:20:01;;;;;;;64.05;27.65;;;;;;;0.29;71.36;95753.03;5102522;28;20024;-81
2023/02/13 08:22:26;;;;;;;69.15;29.77;;;;;;;0.32;71.29;95752.63;5103232;28;20238;-80
2023/02/13 08:24:51;;;;;;;63.70;27.98;;;;;;;0.25;70.72;95749.19;5106373;28;20024;-82
2023/02/13 08:27:17;;;;;;;66.15;28.67;;;;;;;0.23;71.38;95751.22;5106082;28;20028;-80
2023/02/13 08:29:42;;;;;;;64.82;27.80;;;;;;;0.26;70.95;95746.34;5106350;28;20069;-81
2023/02/13 08:32:08;;;;;;;58.42;25.77;;;;;;;0.28;71.28;95746.97;5105052;28;20062;-79
2023/02/13 08:34:33;;;;;;;60.33;26.95;;;;;;;0.27;70.82;95739.31;5106081;28;20048;-83
2023/02/13 08:37:00;;;;;;;63.92;28.25;;;;;;;0.33;70.82;95749.00;5105986;28;20024;-81
2023/02/13 08:39:26;;;;;;;62.92;26.65;;;;;;;0.45;70.44;95752.63;5104930;28;20030;-83
2023/02/13 08:41:51;;;;;;;60.95;26.88;;;;;;;0.57;70.41;95745.75;5105925;28;20263;-84
2023/02/13 08:44:17;;;;;;;63.72;27.15;;;;;;;0.69;69.85;95743.31;5105904;28;20199;-83
2023/02/13 08:46:42;;;;;;;64.85;27.42;;;;;;;0.72;69.62;95753.38;5105982;28;20048;-84
2023/02/13 08:49:07;;;;;;;63.67;25.63;;;;;;;0.73;69.41;95756.81;5104671;28;20028;-83
2023/02/13 08:51:33;;;;;;;65.38;27.48;;;;;;;0.70;69.47;95755.41;5105845;28;20031;-82
2023/02/13 08:53:58;;;;;;;60.33;26.55;;;;;;;0.77;69.20;95750.97;5105738;28;20031;-81
2023/02/13 08:56:24;;;;;;;58.40;26.17;;;;;;;0.86;69.16;95754.19;5104545;28;20028;-83
2023/02/13 08:58:49;;;;;;;60.13;27.63;;;;;;;0.89;69.01;95759.00;5104554;28;20307;-80
2023/02/13 09:01:16;;;;;;;57.10;27.20;;;;;;;0.85;68.59;95755.19;5105715;28;20314;-81
2023/02/13 09:03:41;;;;;;;63.42;26.30;;;;;;;0.91;68.42;95749.09;5105768;28;20016;-80
2023/02/13 09:06:07;;;;;;;54.58;24.55;;;;;;;0.96;68.17;95759.00;5105588;28;20192;-81
2023/02/13 09:08:34;;;;;;;60.17;27.60;;;;;;;0.98;67.91;95751.72;5105562;28;20209;-79
2023/02/13 09:11:03;;;;;;;75.03;30.50;;;;;;;1.13;68.25;95746.22;5105339;28;20016;-82
2023/02/13 09:13:31;;;;;;;70.65;27.63;;;;;;;1.35;67.70;95750.19;5105334;28;20146;-81
2023/02/13 09:15:59;;;;;;;56.30;26.38;;;;;;;1.50;67.09;95749.09;5105355;28;20235;-81
2023/02/13 09:18:25;;;;;;;67.15;28.98;;;;;;;1.70;67.12;95749.00;5105333;28;20062;-79
2023/02/13 09:20:57;;;;;;;71.65;29.98;;;;;;;1.85;65.78;95746.09;5105292;28;20310;-80
2023/02/13 09:23:22;;;;;;;;;;;;;;;1.98;64.78;95746.00;5105957;28;20330;-80
2023/02/13 09:25:48;;;;;;;61.83;25.90;;;;;;;1.82;64.84;95736.81;5105312;28;19946;-78
2023/02/13 09:28:13;;;;;;;65.63;28.50;;;;;;;1.75;65.19;95742.13;5104925;28;20016;-80
2023/02/13 09:30:39;;;;;;;66.55;27.92;;;;;;;1.76;66.04;95735.03;5105199;28;20020;-79
2023/02/13 09:33:09;;;;;;;59.13;28.10;;;;;;;1.89;65.31;95734.91;5105131;28;20034;-80
2023/02/13 09:35:35;;;;;;;60.53;26.92;;;;;;;1.97;64.69;95734.69;5103945;28;20016;-84
2023/02/13 09:38:00;;;;;;;55.25;25.65;;;;;;;1.91;64.35;95725.00;5104879;28;20432;-81
2023/02/13 09:40:33;;;;;;;59.08;27.05;;;;;;;1.93;64.00;95722.16;5104826;28;20091;-83
2023/02/13 09:43:10;;;;;;;57.03;27.00;;;;;;;1.79;64.45;95722.28;5103840;28;20077;-80
2023/02/13 09:45:37;;;;;;;69.18;27.85;;;;;;;1.78;65.42;95719.84;5104837;28;20257;-80
2023/02/13 09:48:04;;;;;;;65.97;29.08;;;;;;;1.75;65.40;95723.72;5104724;28;20031;-87
2023/02/13 09:50:33;;;;;;;73.05;30.58;;;;;;;1.77;65.59;95711.16;5104608;28;20039;-82
2023/02/13 09:53:00;;;;;;;68.38;29.77;;;;;;;1.75;65.49;95721.06;5103383;28;20028;-83
2023/02/13 09:55:36;;;;;;;57.25;26.23;;;;;;;1.70;65.35;95720.91;5103476;28;20235;-82
2023/02/13 09:58:26;;;;;;;57.92;24.77;;;;;;;1.63;65.25;95706.16;5104732;28;20032;-80
2023/02/13 10:00:57;;;;;;;58.50;26.38;;;;;;;1.68;65.43;95703.72;5104566;28;20314;-82
2023/02/13 10:03:57;;;;;;;71.22;30.92;;;;;;;1.68;66.14;95693.22;5102951;28;20027;-82
2023/02/13 10:06:35;;;;;;;66.22;27.88;;;;;;;1.73;65.99;95696.00;5104372;28;20097;-83
2023/02/13 10:09:27;;;;;;;70.45;29.92;;;;;;;1.75;66.91;95686.06;5104468;28;20020;-79
2023/02/13 10:12:01;;;;;;;74.78;30.00;;;;;;;1.76;67.05;95693.75;5104339;28;20020;-86
2023/02/13 10:14:34;;;;;;;78.45;31.00;;;;;;;1.90;66.96;95686.59;5104137;28;20034;-81
2023/02/13 10:17:30;;;;;;;71.63;29.30;;;;;;;2.06;66.22;95687.09;5104098;28;20032;-83
2023/02/13 10:20:02;;;;;;;65.40;27.88;;;;;;;1.95;66.06;95678.03;5103960;28;20034;-77
2023/02/13 10:22:43;;;;;;;69.15;27.20;;;;;;;1.97;65.82;95678.63;5103100;28;20051;-80
2023/02/13 10:25:20;;;;;;;61.33;28.20;;;;;;;1.99;65.62;95679.22;5103989;28;20051;-79
2023/02/13 10:27:51;;;;;;;66.85;29.00;;;;;;;1.99;65.79;95664.28;5104398;28;20248;-79
2023/02/13 10:30:27;;;;;;;67.25;29.42;;;;;;;2.18;65.70;95662.50;5103789;28;20270;-78
2023/02/13 10:33:20;;;;;;;68.53;28.55;;;;;;;2.32;64.72;95665.81;5103945;28;20030;-79
2023/02/13 10:36:05;;;;;;;61.05;26.42;;;;;;;2.34;64.72;95650.63;5104203;28;20261;-82
2023/02/13 10:38:33;;;;;;;71.45;31.45;;;;;;;2.40;65.10;95638.38;5102835;28;20065;-84
2023/02/13 10:41:10;;;;;;;66.85;31.05;;;;;;;2.51;65.57;95632.41;5103868;28;20027;-82
2023/02/13 10:43:48;;;;;;;66.70;29.42;;;;;;;2.66;65.61;95636.53;5103665;28;20083;-80
2023/02/13 10:46:24;;;;;;;73.53;30.40;;;;;;;2.84;63.99;95640.97;5103405;28;20063;-79
2023/02/13 10:49:19;;;;;;;61.40;28.75;;;;;;;3.00;63.61;95628.00;5103837;28;20028;-82
2023/02/13 10:51:55;;;;;;;64.97;29.52;;;;;;;3.17;62.98;95622.91;5103677;28;20355;-83
2023/02/13 10:54:30;;;;;;;71.63;28.73;;;;;;;3.23;61.93;95631.78;5103496;28;20024;-83
2023/02/13 10:56:58;;;;;;;68.22;28.65;;;;;;;3.26;62.23;95636.59;5102148;28;20028;-82
2023/02/13 10:59:27;;;;;;;54.42;26.05;;;;;;;3.21;61.35;95618.00;5103238;28;20051;-83
2023/02/13 11:01:52;;;;;;;74.20;29.50;;;;;;;3.20;61.95;95621.69;5103313;28;20023;-83
2023/02/13 11:04:18;;;;;;;60.60;27.20;;;;;;;3.24;61.61;95617.59;5103404;28;20031;-83
2023/02/13 11:07:02;;;;;;;60.58;27.55;;;;;;;3.35;61.70;95613.38;5103409;28;20085;-82
2023/02/13 11:09:32;;;;;;;61.65;27.73;;;;;;;3.36;61.46;95610.53;5103121;28;20039;-82
2023/02/13 11:12:18;;;;;;;63.40;28.13;;;;;;;3.47;61.58;95624.75;5103277;28;20032;-82
2023/02/13 11:14:56;;;;;;;56.03;26.05;;;;;;;3.54;60.70;95606.19;5103233;28;20032;-83
2023/02/13 11:17:23;;;;;;;55.20;26.35;;;;;;;3.64;59.53;95601.19;5103093;28;20336;-83
2023/02/13 11:19:52;;;;;;;59.95;25.00;;;;;;;3.66;59.55;95596.47;5102088;28;20016;-83
2023/02/13 11:22:38;;;;;;;53.85;25.60;;;;;;;3.69;58.89;95601.31;5103141;28;20016;-83
2023/02/13 11:25:18;;;;;;;54.08;25.35;;;;;;;3.69;59.21;95595.25;5103105;28;20024;-82
2023/02/13 11:27:46;;;;;;;55.80;24.70;;;;;;;3.73;58.33;95591.13;5103273;28;20023;-82
2023/02/13 11:30:20;;;;;;;50.58;23.52;;;;;;;3.81;58.85;95583.66;5102884;28;20028;-82
2023/02/13 11:32:59;;;;;;;47.33;22.77;;;;;;;3.92;59.12;95581.28;5102491;28;20091;-81
2023/02/13 11:35:29;;;;;;;44.20;21.02;;;;;;;4.10;56.14;95569.81;5102994;28;20031;-82
2023/02/13 11:38:19;;;;;;;50.22;21.73;;;;;;;4.12;56.08;95567.75;5102962;28;20023;-81
2023/02/13 11:40:49;;;;;;;54.30;21.13;;;;;;;4.15;57.26;95554.06;5103319;28;20319;-81
2023/02/13 11:43:34;;;;;;;52.83;23.67;;;;;;;4.30;56.29;95556.25;5101753;28;20091;-82
2023/02/13 11:46:27;;;;;;;46.17;20.20;;;;;;;4.24;55.92;95551.91;5102589;28;20059;-81
2023/02/13 11:49:05;;;;;;;49.65;20.88;;;;;;;4.34;55.99;95546.84;5101121;28;20043;-82
2023/02/13 11:51:46;;;;;;;47.22;19.88;;;;;;;4.43;56.02;95545.44;5102630;28;20027;-82
2023/02/13 11:54:32;;;;;;;41.03;19.67;;;;;;;4.41;54.76;95539.56;5102701;28;20095;-81
2023/02/13 11:57:16;;;;;;;48.50;19.55;;;;;;;4.32;54.93;95530.44;5102327;28;20106;-81
2023/02/13 11:59:45;;;;;;;43.95;19.45;;;;;;;4.35;54.98;95519.41;5106818;28;20023;-82
2023/02/13 12:02:19;;;;;;;41.90;19.52;;;;;;;4.38;54.49;95517.09;5106288;28;20038;-81
2023/02/13 12:04:46;;;;;;;48.40;19.70;;;;;;;4.42;54.84;95512.16;5106452;28;20126;-81
2023/02/13 12:07:19;;;;;;;42.47;17.88;;;;;;;4.63;54.63;95502.78;5106627;28;20024;-80
2023/02/13 12:09:49;;;;;;;43.10;19.38;;;;;;;4.75;53.98;95505.41;5105192;28;20069;-81
2023/02/13 12:12:27;;;;;;;42.67;18.90;;;;;;;4.87;53.04;95510.63;5106652;28;20214;-81
2023/02/13 12:14:55;;;;;;;42.33;17.48;;;;;;;4.88;53.20;95496.38;5106465;28;20024;-81
2023/02/13 12:17:25;;;;;;;40.53;17.83;;;;;;;4.94;53.81;95504.16;5106439;28;20047;-81